createdAt,value
2023-07-31T00:00:52.721Z,0.00
2023-07-31T00:01:52.905Z,0.00
2023-07-31T00:02:53.049Z,0.00
2023-07-31T00:03:53.181Z,0.00
2023-07-31T00:04:53.272Z,0.00
2023-07-31T00:05:53.380Z,0.00
2023-07-31T00:06:53.524Z,0.00
2023-07-31T00:07:53.673Z,0.00
2023-07-31T00:08:53.758Z,0.00
2023-07-31T00:09:53.930Z,0.00
2023-07-31T00:10:54.065Z,0.00
2023-07-31T00:11:54.172Z,0.00
2023-07-31T00:12:54.267Z,0.00
2023-07-31T00:13:54.429Z,0.00
2023-07-31T00:14:59.593Z,0.00
2023-07-31T00:15:54.670Z,0.00
2023-07-31T00:16:54.813Z,0.00
2023-07-31T00:17:54.983Z,0.00
2023-07-31T00:18:55.079Z,0.00
2023-07-31T00:19:55.233Z,0.00
2023-07-31T00:20:55.339Z,0.00
2023-07-31T00:21:55.490Z,0.00
2023-07-31T00:22:55.599Z,0.00
2023-07-31T00:23:55.692Z,0.00
2023-07-31T00:24:55.873Z,0.00
2023-07-31T00:25:55.978Z,0.00
2023-07-31T00:26:56.154Z,0.00
2023-07-31T00:27:56.257Z,0.00
2023-07-31T00:28:56.433Z,0.00
2023-07-31T00:29:56.529Z,0.00
2023-07-31T00:30:56.638Z,0.00
2023-07-31T00:31:56.903Z,0.00
2023-07-31T00:32:56.869Z,0.00
2023-07-31T00:33:56.992Z,0.00
2023-07-31T00:34:57.111Z,0.00
2023-07-31T00:35:57.237Z,0.00
2023-07-31T00:36:57.409Z,0.00
2023-07-31T00:37:57.435Z,0.00
2023-07-31T00:38:57.584Z,0.00
2023-07-31T00:39:57.722Z,0.00
2023-07-31T00:40:57.919Z,0.00
2023-07-31T00:41:57.997Z,0.00
2023-07-31T00:43:00.914Z,0.00
2023-07-31T00:43:58.264Z,0.00
2023-07-31T00:44:58.420Z,0.00
2023-07-31T00:45:58.584Z,0.00
2023-07-31T00:46:58.681Z,0.00
2023-07-31T00:47:58.911Z,0.00
2023-07-31T00:48:58.946Z,0.00
2023-07-31T00:49:59.078Z,0.00
2023-07-31T00:50:59.184Z,0.00
2023-07-31T00:51:59.274Z,0.00
2023-07-31T00:52:59.446Z,0.00
2023-07-31T00:53:59.551Z,0.00
2023-07-31T00:54:59.645Z,0.00
2023-07-31T00:55:59.786Z,0.00
2023-07-31T00:56:59.933Z,0.00
2023-07-31T00:58:00.087Z,0.00
2023-07-31T00:59:00.187Z,0.00
2023-07-31T01:00:00.300Z,0.00
2023-07-31T01:01:00.498Z,0.00
2023-07-31T01:02:00.612Z,0.00
2023-07-31T01:03:00.836Z,0.00
2023-07-31T01:04:00.840Z,0.00
2023-07-31T01:05:00.966Z,0.00
2023-07-31T01:06:01.109Z,0.00
2023-07-31T01:07:01.218Z,0.00
2023-07-31T01:08:01.431Z,0.00
2023-07-31T01:09:01.481Z,0.00
2023-07-31T01:10:01.698Z,0.00
2023-07-31T01:11:01.759Z,0.00
2023-07-31T01:12:01.866Z,0.00
2023-07-31T01:13:02.011Z,0.00
2023-07-31T01:14:07.208Z,0.00
2023-07-31T01:15:02.246Z,0.00
2023-07-31T01:16:02.438Z,0.00
2023-07-31T01:17:02.545Z,0.00
2023-07-31T01:18:02.701Z,0.00
2023-07-31T01:19:02.752Z,0.00
2023-07-31T01:20:02.897Z,0.00
2023-07-31T01:21:02.987Z,0.00
2023-07-31T01:22:03.131Z,0.00
2023-07-31T01:23:03.252Z,0.00
2023-07-31T01:24:03.367Z,0.00
2023-07-31T01:25:03.537Z,0.00
2023-07-31T01:26:04.667Z,0.00
2023-07-31T01:27:03.769Z,0.00
2023-07-31T01:28:03.937Z,0.00
2023-07-31T01:29:03.998Z,0.00
2023-07-31T01:30:04.217Z,0.00
2023-07-31T01:31:04.261Z,0.00
2023-07-31T01:32:04.388Z,0.00
2023-07-31T01:33:04.672Z,0.00
2023-07-31T01:34:04.673Z,0.00
2023-07-31T01:35:04.827Z,0.00
2023-07-31T01:36:04.954Z,0.00
2023-07-31T01:37:05.071Z,0.00
2023-07-31T01:38:05.199Z,0.00
2023-07-31T01:39:05.362Z,0.00
2023-07-31T01:40:05.518Z,0.00
2023-07-31T01:41:05.635Z,0.00
2023-07-31T01:42:05.751Z,0.00
2023-07-31T01:43:05.905Z,0.00
2023-07-31T01:44:06.018Z,0.00
2023-07-31T01:45:06.196Z,0.00
2023-07-31T01:46:06.599Z,0.00
2023-07-31T01:47:06.415Z,0.00
2023-07-31T01:48:06.585Z,0.00
2023-07-31T01:49:06.673Z,0.00
2023-07-31T01:50:06.810Z,0.00
2023-07-31T01:51:07.019Z,0.00
2023-07-31T01:52:07.114Z,0.00
2023-07-31T01:53:07.216Z,0.00
2023-07-31T01:54:07.380Z,0.00
2023-07-31T01:55:07.524Z,0.00
2023-07-31T01:56:07.704Z,0.00
2023-07-31T01:57:07.773Z,0.00
2023-07-31T01:58:07.904Z,0.00
2023-07-31T01:59:08.059Z,0.00
2023-07-31T02:00:08.166Z,0.00
2023-07-31T02:01:08.337Z,0.00
2023-07-31T02:02:08.500Z,0.00
2023-07-31T02:03:08.663Z,0.00
2023-07-31T02:04:08.680Z,0.00
2023-07-31T02:05:08.834Z,0.00
2023-07-31T02:06:08.971Z,0.00
2023-07-31T02:07:09.077Z,0.00
2023-07-31T02:08:09.239Z,0.00
2023-07-31T02:09:09.361Z,0.00
2023-07-31T02:10:09.464Z,0.00
2023-07-31T02:11:09.640Z,0.00
2023-07-31T02:12:09.738Z,0.00
2023-07-31T02:13:09.883Z,0.00
2023-07-31T02:14:10.006Z,0.00
2023-07-31T02:15:10.136Z,0.00
2023-07-31T02:16:10.307Z,0.00
2023-07-31T02:17:10.446Z,0.00
2023-07-31T02:18:15.595Z,0.00
2023-07-31T02:19:10.685Z,0.00
2023-07-31T02:20:10.826Z,0.00
2023-07-31T02:21:10.968Z,0.00
2023-07-31T02:22:11.125Z,0.00
2023-07-31T02:23:11.284Z,0.00
2023-07-31T02:24:11.391Z,0.00
2023-07-31T02:25:11.528Z,0.00
2023-07-31T02:26:11.674Z,0.00
2023-07-31T02:27:11.801Z,0.00
2023-07-31T02:28:11.955Z,0.00
2023-07-31T02:29:12.069Z,0.00
2023-07-31T02:30:12.229Z,0.00
2023-07-31T02:31:12.343Z,0.00
2023-07-31T02:32:12.506Z,0.00
2023-07-31T02:33:12.573Z,0.00
2023-07-31T02:34:12.709Z,0.00
2023-07-31T02:35:12.923Z,0.00
2023-07-31T02:36:13.007Z,0.00
2023-07-31T02:37:13.121Z,0.00
2023-07-31T02:38:13.269Z,0.00
2023-07-31T02:39:13.429Z,0.00
2023-07-31T02:40:13.624Z,0.00
2023-07-31T02:41:13.637Z,0.00
2023-07-31T02:42:13.767Z,0.00
2023-07-31T02:43:13.906Z,0.00
2023-07-31T02:44:14.068Z,0.00
2023-07-31T02:45:14.201Z,0.00
2023-07-31T02:46:14.484Z,0.00
2023-07-31T02:47:14.414Z,0.00
2023-07-31T02:48:14.554Z,0.00
2023-07-31T02:49:14.707Z,0.00
2023-07-31T02:50:14.936Z,0.00
2023-07-31T02:51:15.001Z,0.00
2023-07-31T02:52:15.100Z,0.00
2023-07-31T02:53:15.257Z,0.00
2023-07-31T02:54:15.374Z,0.00
2023-07-31T02:55:15.496Z,0.00
2023-07-31T02:56:16.267Z,0.00
2023-07-31T02:57:15.731Z,0.00
2023-07-31T02:58:15.883Z,0.00
2023-07-31T02:59:15.973Z,0.00
2023-07-31T03:00:16.108Z,0.00
2023-07-31T03:01:16.241Z,0.00
2023-07-31T03:02:16.397Z,0.00
2023-07-31T03:03:16.570Z,0.00
2023-07-31T03:04:18.665Z,0.00
2023-07-31T03:05:16.682Z,0.00
2023-07-31T03:06:16.851Z,0.00
2023-07-31T03:07:17.001Z,0.00
2023-07-31T03:08:17.092Z,0.00
2023-07-31T03:09:17.213Z,0.00
2023-07-31T03:10:17.330Z,0.00
2023-07-31T03:11:17.440Z,0.00
2023-07-31T03:12:17.654Z,0.00
2023-07-31T03:13:17.748Z,0.00
2023-07-31T03:14:18.505Z,0.00
2023-07-31T03:15:17.985Z,0.00
2023-07-31T03:16:18.125Z,0.00
2023-07-31T03:17:23.234Z,0.00
2023-07-31T03:18:18.319Z,0.00
2023-07-31T03:19:18.482Z,0.00
2023-07-31T03:20:20.349Z,0.00
2023-07-31T03:21:18.746Z,0.00
2023-07-31T03:22:18.901Z,0.00
2023-07-31T03:23:19.050Z,0.00
2023-07-31T03:24:19.147Z,0.00
2023-07-31T03:25:19.255Z,0.00
2023-07-31T03:26:19.483Z,0.00
2023-07-31T03:27:19.543Z,0.00
2023-07-31T03:28:19.712Z,0.00
2023-07-31T03:29:20.834Z,0.00
2023-07-31T03:30:19.919Z,0.00
2023-07-31T03:31:20.090Z,4.00
2023-07-31T03:32:21.184Z,4.00
2023-07-31T03:33:20.378Z,4.00
2023-07-31T03:34:20.481Z,4.00
2023-07-31T03:35:20.634Z,4.00
2023-07-31T03:36:20.692Z,4.00
2023-07-31T03:37:20.820Z,4.00
2023-07-31T03:38:20.988Z,4.00
2023-07-31T03:39:21.086Z,8.00
2023-07-31T03:40:21.229Z,4.00
2023-07-31T03:41:21.437Z,4.00
2023-07-31T03:42:21.500Z,8.00
2023-07-31T03:43:21.685Z,8.00
2023-07-31T03:44:21.787Z,8.00
2023-07-31T03:45:21.868Z,8.00
2023-07-31T03:46:22.036Z,12.00
2023-07-31T03:47:22.155Z,12.00
2023-07-31T03:48:22.324Z,16.00
2023-07-31T03:49:22.420Z,16.00
2023-07-31T03:50:22.623Z,20.00
2023-07-31T03:51:22.673Z,16.00
2023-07-31T03:52:22.812Z,20.00
2023-07-31T03:53:22.953Z,20.00
2023-07-31T03:54:23.092Z,20.00
2023-07-31T03:55:23.226Z,24.00
2023-07-31T03:56:23.371Z,28.00
2023-07-31T03:57:23.528Z,48.00
2023-07-31T03:58:23.592Z,60.00
2023-07-31T03:59:23.778Z,84.00
2023-07-31T04:00:23.890Z,80.00
2023-07-31T04:01:24.058Z,88.00
2023-07-31T04:02:24.157Z,72.00
2023-07-31T04:03:24.288Z,60.00
2023-07-31T04:04:24.492Z,72.00
2023-07-31T04:05:24.590Z,68.00
2023-07-31T04:06:24.691Z,64.00
2023-07-31T04:07:24.818Z,64.00
2023-07-31T04:08:24.920Z,72.00
2023-07-31T04:09:25.171Z,64.00
2023-07-31T04:10:25.239Z,76.00
2023-07-31T04:11:25.320Z,120.00
2023-07-31T04:12:25.429Z,120.00
2023-07-31T04:13:25.540Z,116.00
2023-07-31T04:14:25.674Z,112.00
2023-07-31T04:15:30.850Z,132.00
2023-07-31T04:16:25.929Z,188.00
2023-07-31T04:17:26.056Z,308.00
2023-07-31T04:18:26.201Z,224.00
2023-07-31T04:19:26.305Z,192.00
2023-07-31T04:20:26.399Z,184.00
2023-07-31T04:21:26.605Z,188.00
2023-07-31T04:22:26.689Z,240.00
2023-07-31T04:23:26.927Z,236.00
2023-07-31T04:24:26.933Z,204.00
2023-07-31T04:25:27.096Z,168.00
2023-07-31T04:26:27.210Z,200.00
2023-07-31T04:27:27.313Z,224.00
2023-07-31T04:28:27.604Z,216.00
2023-07-31T04:29:27.573Z,204.00
2023-07-31T04:30:27.694Z,152.00
2023-07-31T04:31:27.988Z,204.00
2023-07-31T04:32:28.052Z,348.00
2023-07-31T04:33:28.108Z,340.00
2023-07-31T04:34:28.292Z,456.00
2023-07-31T04:35:28.334Z,496.00
2023-07-31T04:36:28.479Z,480.00
2023-07-31T04:37:28.621Z,520.00
2023-07-31T04:38:28.763Z,436.00
2023-07-31T04:39:28.979Z,424.00
2023-07-31T04:40:29.052Z,456.00
2023-07-31T04:41:29.135Z,620.00
2023-07-31T04:42:29.263Z,864.00
2023-07-31T04:43:29.466Z,928.00
2023-07-31T04:44:29.541Z,952.00
2023-07-31T04:45:29.635Z,848.00
2023-07-31T04:46:29.812Z,660.00
2023-07-31T04:47:29.971Z,644.00
2023-07-31T04:48:30.078Z,672.00
2023-07-31T04:49:30.177Z,872.00
2023-07-31T04:50:30.364Z,960.00
2023-07-31T04:51:30.453Z,928.00
2023-07-31T04:52:30.590Z,1000.00
2023-07-31T04:53:30.724Z,700.00
2023-07-31T04:54:30.880Z,600.00
2023-07-31T04:55:30.983Z,672.00
2023-07-31T04:56:31.618Z,748.00
2023-07-31T04:57:31.301Z,744.00
2023-07-31T04:58:31.385Z,876.00
2023-07-31T04:59:31.527Z,916.00
2023-07-31T05:00:31.661Z,960.00
2023-07-31T05:01:31.810Z,956.00
2023-07-31T05:02:31.959Z,976.00
2023-07-31T05:03:32.150Z,732.00
2023-07-31T05:04:32.122Z,728.00
2023-07-31T05:05:32.286Z,900.00
2023-07-31T05:06:32.397Z,916.00
2023-07-31T05:07:32.474Z,872.00
2023-07-31T05:08:32.609Z,1016.00
2023-07-31T05:09:32.724Z,828.00
2023-07-31T05:10:32.870Z,892.00
2023-07-31T05:11:33.026Z,912.00
2023-07-31T05:12:33.120Z,800.00
2023-07-31T05:13:33.262Z,864.00
2023-07-31T05:14:33.422Z,872.00
2023-07-31T05:15:38.621Z,844.00
2023-07-31T05:16:33.683Z,1052.00
2023-07-31T05:17:33.821Z,1048.00
2023-07-31T05:18:33.892Z,1168.00
2023-07-31T05:19:34.014Z,1172.00
2023-07-31T05:20:34.130Z,1124.00
2023-07-31T05:21:34.286Z,1056.00
2023-07-31T05:22:34.387Z,996.00
2023-07-31T05:23:34.549Z,872.00
2023-07-31T05:24:34.682Z,936.00
2023-07-31T05:25:34.807Z,760.00
2023-07-31T05:26:35.010Z,796.00
2023-07-31T05:27:35.112Z,780.00
2023-07-31T05:28:35.248Z,764.00
2023-07-31T05:29:35.327Z,740.00
2023-07-31T05:30:35.470Z,708.00
2023-07-31T05:31:35.649Z,760.00
2023-07-31T05:32:35.765Z,692.00
2023-07-31T05:33:35.884Z,696.00
2023-07-31T05:34:36.024Z,768.00
2023-07-31T05:35:36.187Z,704.00
2023-07-31T05:36:36.307Z,728.00
2023-07-31T05:37:36.443Z,720.00
2023-07-31T05:38:36.588Z,768.00
2023-07-31T05:39:36.724Z,700.00
2023-07-31T05:40:36.911Z,708.00
2023-07-31T05:41:37.055Z,652.00
2023-07-31T05:42:37.139Z,764.00
2023-07-31T05:43:37.244Z,924.00
2023-07-31T05:44:37.357Z,1060.00
2023-07-31T05:45:37.565Z,1220.00
2023-07-31T05:46:38.057Z,1264.00
2023-07-31T05:47:37.776Z,1472.00
2023-07-31T05:48:37.944Z,1460.00
2023-07-31T05:49:38.035Z,1544.00
2023-07-31T05:50:38.181Z,1580.00
2023-07-31T05:51:38.315Z,1736.00
2023-07-31T05:52:38.462Z,1860.00
2023-07-31T05:53:38.627Z,2232.00
2023-07-31T05:54:38.739Z,2588.00
2023-07-31T05:55:38.848Z,2792.00
2023-07-31T05:56:39.254Z,2752.00
2023-07-31T05:57:39.133Z,2960.00
2023-07-31T05:58:39.259Z,3188.00
2023-07-31T05:59:39.376Z,3148.00
2023-07-31T06:00:39.494Z,3288.00
2023-07-31T06:01:39.583Z,3372.00
2023-07-31T06:02:39.743Z,3572.00
2023-07-31T06:03:40.068Z,3624.00
2023-07-31T06:04:40.150Z,3592.00
2023-07-31T06:05:40.088Z,3868.00
2023-07-31T06:06:40.563Z,3776.00
2023-07-31T06:07:40.350Z,3916.00
2023-07-31T06:08:40.508Z,4600.00
2023-07-31T06:09:40.663Z,3704.00
2023-07-31T06:10:40.770Z,3552.00
2023-07-31T06:11:40.919Z,3704.00
2023-07-31T06:12:41.002Z,4328.00
2023-07-31T06:13:43.797Z,5508.00
2023-07-31T06:14:52.352Z,4884.00
2023-07-31T06:15:41.483Z,5364.00
2023-07-31T06:16:41.820Z,5408.00
2023-07-31T06:17:41.672Z,5160.00
2023-07-31T06:18:41.778Z,5424.00
2023-07-31T06:19:41.884Z,5684.00
2023-07-31T06:20:42.072Z,5200.00
2023-07-31T06:21:42.164Z,4892.00
2023-07-31T06:22:42.311Z,4908.00
2023-07-31T06:23:42.465Z,4712.00
2023-07-31T06:24:42.557Z,4356.00
2023-07-31T06:25:42.726Z,4420.00
2023-07-31T06:26:43.208Z,3712.00
2023-07-31T06:27:42.968Z,3536.00
2023-07-31T06:28:43.124Z,3376.00
2023-07-31T06:29:43.252Z,3160.00
2023-07-31T06:30:43.435Z,2884.00
2023-07-31T06:31:43.535Z,2844.00
2023-07-31T06:32:43.641Z,3108.00
2023-07-31T06:33:43.722Z,3132.00
2023-07-31T06:34:43.856Z,2780.00
2023-07-31T06:35:44.007Z,2836.00
2023-07-31T06:36:44.119Z,3144.00
2023-07-31T06:37:44.294Z,2712.00
2023-07-31T06:38:44.389Z,3040.00
2023-07-31T06:39:44.531Z,3040.00
2023-07-31T06:40:44.638Z,2968.00
2023-07-31T06:41:44.758Z,3624.00
2023-07-31T06:42:44.925Z,3916.00
2023-07-31T06:43:45.022Z,3852.00
2023-07-31T06:44:45.128Z,4200.00
2023-07-31T06:45:45.298Z,4428.00
2023-07-31T06:46:45.414Z,5280.00
2023-07-31T06:47:45.608Z,4784.00
2023-07-31T06:48:45.687Z,4812.00
2023-07-31T06:49:45.830Z,4608.00
2023-07-31T06:50:45.970Z,5072.00
2023-07-31T06:51:46.612Z,4840.00
2023-07-31T06:52:46.270Z,5428.00
2023-07-31T06:53:46.438Z,6116.00
2023-07-31T06:54:46.522Z,6612.00
2023-07-31T06:55:46.645Z,5320.00
2023-07-31T06:56:46.829Z,4592.00
2023-07-31T06:57:46.875Z,4688.00
2023-07-31T06:58:47.044Z,5712.00
2023-07-31T06:59:47.144Z,5000.00
2023-07-31T07:00:47.326Z,4572.00
2023-07-31T07:01:47.414Z,4804.00
2023-07-31T07:02:47.571Z,5204.00
2023-07-31T07:03:47.697Z,4860.00
2023-07-31T07:04:47.793Z,4860.00
2023-07-31T07:05:47.927Z,5280.00
2023-07-31T07:06:48.052Z,5288.00
2023-07-31T07:07:48.245Z,5064.00
2023-07-31T07:08:48.311Z,3740.00
2023-07-31T07:09:48.461Z,3640.00
2023-07-31T07:10:48.586Z,3028.00
2023-07-31T07:11:48.703Z,3008.00
2023-07-31T07:12:48.901Z,3488.00
2023-07-31T07:13:48.997Z,3972.00
2023-07-31T07:14:49.102Z,4476.00
2023-07-31T07:15:54.407Z,4576.00
2023-07-31T07:16:49.392Z,4128.00
2023-07-31T07:17:49.553Z,3800.00
2023-07-31T07:19:02.314Z,3880.00
2023-07-31T07:19:50.788Z,3740.00
2023-07-31T07:20:49.884Z,3296.00
2023-07-31T07:21:50.018Z,3908.00
2023-07-31T07:22:50.104Z,4772.00
2023-07-31T07:23:50.347Z,5764.00
2023-07-31T07:24:50.443Z,5944.00
2023-07-31T07:25:50.515Z,6112.00
2023-07-31T07:26:50.648Z,6232.00
2023-07-31T07:27:50.788Z,7140.00
2023-07-31T07:28:50.893Z,7284.00
2023-07-31T07:29:50.986Z,5880.00
2023-07-31T07:30:51.109Z,6316.00
2023-07-31T07:32:09.029Z,7332.00
2023-07-31T07:32:51.401Z,8496.00
2023-07-31T07:33:51.487Z,9052.00
2023-07-31T07:34:51.596Z,7028.00
2023-07-31T07:35:51.690Z,6972.00
2023-07-31T07:36:52.418Z,7604.00
2023-07-31T07:37:53.314Z,5544.00
2023-07-31T07:38:52.164Z,5584.00
2023-07-31T07:39:52.243Z,4972.00
2023-07-31T07:40:53.196Z,5820.00
2023-07-31T07:41:52.504Z,6384.00
2023-07-31T07:42:52.710Z,8628.00
2023-07-31T07:43:52.805Z,6416.00
2023-07-31T07:44:52.930Z,5416.00
2023-07-31T07:45:53.313Z,5804.00
2023-07-31T07:46:53.264Z,6164.00
2023-07-31T07:47:53.590Z,6328.00
2023-07-31T07:48:53.477Z,7432.00
2023-07-31T07:49:53.769Z,7224.00
2023-07-31T07:50:53.882Z,9148.00
2023-07-31T07:51:53.976Z,7644.00
2023-07-31T07:52:54.010Z,6592.00
2023-07-31T07:53:54.199Z,5844.00
2023-07-31T07:54:54.369Z,5588.00
2023-07-31T07:55:54.330Z,6236.00
2023-07-31T07:56:54.555Z,6896.00
2023-07-31T07:57:54.674Z,9104.00
2023-07-31T07:58:54.754Z,9368.00
2023-07-31T07:59:54.910Z,8100.00
2023-07-31T08:00:55.130Z,6420.00
2023-07-31T08:01:55.413Z,6500.00
2023-07-31T08:02:55.430Z,7312.00
2023-07-31T08:03:55.769Z,7196.00
2023-07-31T08:04:55.605Z,9980.00
2023-07-31T08:05:55.719Z,11336.00
2023-07-31T08:06:55.828Z,11160.00
2023-07-31T08:07:55.962Z,10956.00
2023-07-31T08:08:56.058Z,10712.00
2023-07-31T08:09:56.183Z,10296.00
2023-07-31T08:10:56.374Z,11372.00
2023-07-31T08:11:56.425Z,12548.00
2023-07-31T08:12:56.586Z,12476.00
2023-07-31T08:13:56.664Z,11232.00
2023-07-31T08:14:56.854Z,14528.00
2023-07-31T08:15:56.940Z,19392.00
2023-07-31T08:16:57.166Z,14368.00
2023-07-31T08:17:57.298Z,9692.00
2023-07-31T08:18:57.495Z,7752.00
2023-07-31T08:19:57.582Z,7236.00
2023-07-31T08:20:57.582Z,6028.00
2023-07-31T08:21:58.578Z,6164.00
2023-07-31T08:22:57.884Z,6704.00
2023-07-31T08:24:03.598Z,6384.00
2023-07-31T08:24:58.155Z,5536.00
2023-07-31T08:25:58.309Z,6048.00
2023-07-31T08:26:58.428Z,5612.00
2023-07-31T08:27:58.608Z,5472.00
2023-07-31T08:28:58.798Z,5516.00
2023-07-31T08:29:58.897Z,5820.00
2023-07-31T08:30:58.957Z,5592.00
2023-07-31T08:31:59.119Z,6092.00
2023-07-31T08:32:59.272Z,6704.00
2023-07-31T08:33:59.413Z,5668.00
2023-07-31T08:34:59.582Z,6112.00
2023-07-31T08:35:59.575Z,6112.00
2023-07-31T08:36:59.688Z,6048.00
2023-07-31T08:37:59.777Z,6900.00
2023-07-31T08:38:59.989Z,9100.00
2023-07-31T08:40:00.103Z,8724.00
2023-07-31T08:41:00.248Z,9636.00
2023-07-31T08:42:00.333Z,9876.00
2023-07-31T08:43:00.565Z,7604.00
2023-07-31T08:44:00.616Z,6176.00
2023-07-31T08:45:00.832Z,6148.00
2023-07-31T08:46:00.997Z,8828.00
2023-07-31T08:47:01.012Z,10216.00
2023-07-31T08:48:01.302Z,9848.00
2023-07-31T08:49:01.302Z,8172.00
2023-07-31T08:50:01.494Z,8836.00
2023-07-31T08:51:01.541Z,9368.00
2023-07-31T08:52:01.701Z,9832.00
2023-07-31T08:53:01.871Z,8980.00
2023-07-31T08:54:01.952Z,9760.00
2023-07-31T08:55:03.150Z,10260.00
2023-07-31T08:56:02.213Z,9504.00
2023-07-31T08:57:02.324Z,8900.00
2023-07-31T08:58:02.484Z,6960.00
2023-07-31T08:59:02.571Z,7784.00
2023-07-31T09:00:02.885Z,9112.00
2023-07-31T09:01:02.904Z,13972.00
2023-07-31T09:02:03.040Z,12024.00
2023-07-31T09:03:03.366Z,10048.00
2023-07-31T09:04:03.440Z,8968.00
2023-07-31T09:05:03.372Z,7888.00
2023-07-31T09:06:03.601Z,9792.00
2023-07-31T09:07:03.656Z,11348.00
2023-07-31T09:08:04.318Z,13704.00
2023-07-31T09:09:03.890Z,14212.00
2023-07-31T09:10:04.092Z,12436.00
2023-07-31T09:11:04.219Z,11740.00
2023-07-31T09:12:04.371Z,10972.00
2023-07-31T09:13:04.486Z,10440.00
2023-07-31T09:14:04.736Z,11708.00
2023-07-31T09:15:04.721Z,14020.00
2023-07-31T09:16:04.856Z,14636.00
2023-07-31T09:17:04.971Z,16192.00
2023-07-31T09:18:05.109Z,11276.00
2023-07-31T09:19:05.245Z,9860.00
2023-07-31T09:20:05.337Z,9504.00
2023-07-31T09:21:05.467Z,12860.00
2023-07-31T09:22:05.634Z,15424.00
2023-07-31T09:23:05.737Z,17600.00
2023-07-31T09:24:11.258Z,18144.00
2023-07-31T09:25:05.995Z,14944.00
2023-07-31T09:26:06.094Z,12180.00
2023-07-31T09:27:06.243Z,9652.00
2023-07-31T09:28:06.403Z,7556.00
2023-07-31T09:29:06.519Z,7124.00
2023-07-31T09:30:06.774Z,11132.00
2023-07-31T09:31:06.809Z,14692.00
2023-07-31T09:32:06.890Z,15392.00
2023-07-31T09:33:07.282Z,15248.00
2023-07-31T09:34:07.208Z,15132.00
2023-07-31T09:35:07.309Z,12960.00
2023-07-31T09:36:07.457Z,12140.00
2023-07-31T09:37:07.590Z,9708.00
2023-07-31T09:38:07.700Z,13052.00
2023-07-31T09:39:07.824Z,13016.00
2023-07-31T09:40:07.958Z,11296.00
2023-07-31T09:41:08.057Z,14608.00
2023-07-31T09:42:08.144Z,13832.00
2023-07-31T09:43:08.303Z,12708.00
2023-07-31T09:44:08.431Z,11912.00
2023-07-31T09:45:08.557Z,11040.00
2023-07-31T09:46:08.702Z,13244.00
2023-07-31T09:47:08.980Z,12520.00
2023-07-31T09:48:08.915Z,10228.00
2023-07-31T09:49:09.028Z,6788.00
2023-07-31T09:50:09.469Z,9136.00
2023-07-31T09:51:09.321Z,9692.00
2023-07-31T09:52:09.456Z,12712.00
2023-07-31T09:53:09.586Z,9868.00
2023-07-31T09:54:09.683Z,11780.00
2023-07-31T09:55:09.950Z,10080.00
2023-07-31T09:56:09.966Z,9780.00
2023-07-31T09:57:10.076Z,9952.00
2023-07-31T09:58:10.150Z,10976.00
2023-07-31T09:59:10.285Z,10904.00
2023-07-31T10:00:10.526Z,9364.00
2023-07-31T10:01:10.609Z,7724.00
2023-07-31T10:02:10.681Z,9464.00
2023-07-31T10:03:11.212Z,9128.00
2023-07-31T10:04:10.970Z,10576.00
2023-07-31T10:05:11.091Z,11224.00
2023-07-31T10:06:11.323Z,11864.00
2023-07-31T10:07:11.279Z,11240.00
2023-07-31T10:08:11.447Z,11336.00
2023-07-31T10:09:11.629Z,10284.00
2023-07-31T10:10:11.717Z,12836.00
2023-07-31T10:11:11.924Z,11528.00
2023-07-31T10:12:11.962Z,7464.00
2023-07-31T10:13:12.117Z,7152.00
2023-07-31T10:14:12.218Z,6520.00
2023-07-31T10:15:12.429Z,6336.00
2023-07-31T10:16:12.591Z,7072.00
2023-07-31T10:17:12.590Z,6316.00
2023-07-31T10:18:12.695Z,6328.00
2023-07-31T10:19:12.862Z,6728.00
2023-07-31T10:20:12.948Z,6672.00
2023-07-31T10:21:13.138Z,6316.00
2023-07-31T10:22:13.886Z,6648.00
2023-07-31T10:23:13.324Z,6704.00
2023-07-31T10:24:13.629Z,6312.00
2023-07-31T10:25:13.571Z,7524.00
2023-07-31T10:26:13.733Z,9144.00
2023-07-31T10:27:18.908Z,7232.00
2023-07-31T10:28:14.632Z,7164.00
2023-07-31T10:29:14.099Z,6544.00
2023-07-31T10:30:15.497Z,6676.00
2023-07-31T10:31:14.436Z,6344.00
2023-07-31T10:32:14.506Z,5520.00
2023-07-31T10:33:14.652Z,5648.00
2023-07-31T10:34:14.748Z,5340.00
2023-07-31T10:35:14.855Z,5092.00
2023-07-31T10:36:15.007Z,5896.00
2023-07-31T10:37:15.212Z,5836.00
2023-07-31T10:38:15.257Z,6168.00
2023-07-31T10:39:15.369Z,7500.00
2023-07-31T10:40:15.528Z,10252.00
2023-07-31T10:41:19.482Z,15036.00
2023-07-31T10:42:15.801Z,13844.00
2023-07-31T10:43:15.894Z,15584.00
2023-07-31T10:44:16.013Z,13016.00
2023-07-31T10:45:16.148Z,11328.00
2023-07-31T10:46:16.285Z,14740.00
2023-07-31T10:47:16.509Z,12728.00
2023-07-31T10:48:17.271Z,13312.00
2023-07-31T10:49:16.636Z,12864.00
2023-07-31T10:50:16.834Z,9580.00
2023-07-31T10:51:16.964Z,7556.00
2023-07-31T10:52:17.065Z,7884.00
2023-07-31T10:53:17.238Z,7276.00
2023-07-31T10:54:17.308Z,5652.00
2023-07-31T10:55:17.456Z,4572.00
2023-07-31T10:56:17.548Z,3672.00
2023-07-31T10:57:17.672Z,3472.00
2023-07-31T10:58:17.857Z,3756.00
2023-07-31T10:59:17.955Z,3520.00
2023-07-31T11:00:18.118Z,5512.00
2023-07-31T11:01:18.220Z,6476.00
2023-07-31T11:02:18.378Z,11896.00
2023-07-31T11:03:18.574Z,10168.00
2023-07-31T11:04:18.603Z,9160.00
2023-07-31T11:05:18.756Z,9876.00
2023-07-31T11:06:19.513Z,12060.00
2023-07-31T11:07:19.000Z,11516.00
2023-07-31T11:08:19.162Z,10840.00
2023-07-31T11:09:19.273Z,12628.00
2023-07-31T11:10:19.365Z,12352.00
2023-07-31T11:11:19.510Z,12204.00
2023-07-31T11:12:19.604Z,10592.00
2023-07-31T11:13:19.719Z,8548.00
2023-07-31T11:14:20.011Z,7696.00
2023-07-31T11:15:19.988Z,6804.00
2023-07-31T11:16:20.136Z,6552.00
2023-07-31T11:17:20.207Z,6968.00
2023-07-31T11:18:20.417Z,7796.00
2023-07-31T11:19:20.489Z,7632.00
2023-07-31T11:20:20.600Z,7524.00
2023-07-31T11:21:20.705Z,5772.00
2023-07-31T11:22:20.873Z,5480.00
2023-07-31T11:23:21.004Z,8960.00
2023-07-31T11:24:26.121Z,8592.00
2023-07-31T11:25:21.214Z,8800.00
2023-07-31T11:26:21.399Z,8888.00
2023-07-31T11:27:21.470Z,7608.00
2023-07-31T11:28:21.589Z,7500.00
2023-07-31T11:29:21.847Z,7576.00
2023-07-31T11:30:21.876Z,6652.00
2023-07-31T11:31:22.204Z,5972.00
2023-07-31T11:32:22.091Z,5596.00
2023-07-31T11:33:22.275Z,6632.00
2023-07-31T11:34:22.440Z,5996.00
2023-07-31T11:35:22.511Z,7316.00
2023-07-31T11:36:22.795Z,7396.00
2023-07-31T11:37:22.762Z,7000.00
2023-07-31T11:38:22.978Z,6772.00
2023-07-31T11:39:23.077Z,6552.00
2023-07-31T11:40:25.668Z,6260.00
2023-07-31T11:41:23.339Z,7404.00
2023-07-31T11:42:23.478Z,6592.00
2023-07-31T11:43:23.553Z,6428.00
2023-07-31T11:44:28.049Z,6216.00
2023-07-31T11:45:23.871Z,6288.00
2023-07-31T11:46:23.996Z,6660.00
2023-07-31T11:47:24.095Z,6684.00
2023-07-31T11:48:24.192Z,9196.00
2023-07-31T11:49:24.392Z,9808.00
2023-07-31T11:50:24.764Z,8400.00
2023-07-31T11:51:24.939Z,7776.00
2023-07-31T11:52:24.740Z,7508.00
2023-07-31T11:53:24.873Z,12372.00
2023-07-31T11:54:24.966Z,10764.00
2023-07-31T11:55:25.092Z,9072.00
2023-07-31T11:56:25.401Z,6480.00
2023-07-31T11:57:25.368Z,7708.00
2023-07-31T11:58:25.450Z,10340.00
2023-07-31T11:59:25.607Z,10656.00
2023-07-31T12:00:25.718Z,9028.00
2023-07-31T12:01:25.939Z,9080.00
2023-07-31T12:02:26.038Z,9664.00
2023-07-31T12:03:26.243Z,9144.00
2023-07-31T12:04:26.340Z,6772.00
2023-07-31T12:05:26.398Z,6936.00
2023-07-31T12:06:26.637Z,7040.00
2023-07-31T12:08:42.221Z,7492.00
2023-07-31T12:09:42.361Z,7440.00
2023-07-31T12:10:42.507Z,7948.00
2023-07-31T12:11:43.239Z,9996.00
2023-07-31T12:12:42.806Z,9468.00
2023-07-31T12:13:42.913Z,7912.00
2023-07-31T12:14:43.064Z,7292.00
2023-07-31T12:15:43.182Z,9148.00
2023-07-31T12:16:43.489Z,10944.00
2023-07-31T12:17:43.534Z,11836.00
2023-07-31T12:18:43.559Z,9280.00
2023-07-31T12:19:43.687Z,8664.00
2023-07-31T12:20:43.838Z,7480.00
2023-07-31T12:21:43.966Z,7052.00
2023-07-31T12:22:44.130Z,7280.00
2023-07-31T12:23:44.610Z,6504.00
2023-07-31T12:24:44.384Z,6624.00
2023-07-31T12:25:44.496Z,5624.00
2023-07-31T12:26:44.637Z,6112.00
2023-07-31T12:27:44.795Z,5940.00
2023-07-31T12:28:44.962Z,5840.00
2023-07-31T12:29:45.035Z,6044.00
2023-07-31T12:30:45.182Z,6208.00